Time;durP1;ratioP1;P1;durP2;ratioP2;P2;SDS_P1;SDS_P2;PMS_P1;PMS_P2;Temp;Humidity;BMP_temperature;BMP_pressure;BME280_temperature;BME280_humidity;BME280_pressure;Samples;Min_cycle;Max_cycle;Signal;HPM_P1;HPM_P2
2023/03/10 00:01:16;;;;;;;29.73;18.90;;;11.20;93.60;;;;;;4931994;29;20210;-79
2023/03/10 00:03:44;;;;;;;25.73;17.57;;;11.20;93.80;;;;;;4936915;29;20213;-79
2023/03/10 00:06:13;;;;;;;28.20;18.97;;;11.20;94.00;;;;;;4920605;29;20268;-79
2023/03/10 00:08:41;;;;;;;29.77;19.43;;;11.20;94.10;;;;;;4936033;29;20212;-79
2023/03/10 00:11:09;;;;;;;32.90;19.57;;;11.20;94.20;;;;;;4915495;29;20249;-79
2023/03/10 00:13:36;;;;;;;29.63;19.43;;;11.20;94.40;;;;;;4930832;29;20568;-79
2023/03/10 00:16:04;;;;;;;23.53;18.47;;;11.20;94.30;;;;;;4932907;29;20203;-80
2023/03/10 00:18:31;;;;;;;32.47;19.67;;;11.20;94.30;;;;;;4927307;29;20227;-79
2023/03/10 00:20:58;;;;;;;29.20;20.43;;;11.20;94.20;;;;;;4931617;29;20226;-79
2023/03/10 00:23:25;;;;;;;30.37;20.07;;;11.20;94.30;;;;;;4925342;29;20286;-79
2023/03/10 00:25:57;;;;;;;28.67;19.93;;;11.20;94.30;;;;;;4934680;29;20569;-79
2023/03/10 00:28:26;;;;;;;28.03;19.93;;;11.20;94.30;;;;;;4925249;29;20211;-79
2023/03/10 00:31:09;;;;;;;28.00;19.93;;;11.20;94.30;;;;;;4927674;29;20206;-79
2023/03/10 00:33:36;;;;;;;33.83;20.03;;;11.20;94.30;;;;;;4932023;29;20595;-80
2023/03/10 00:36:11;;;;;;;23.17;19.30;;;11.10;94.10;;;;;;4922966;29;20204;-79
2023/03/10 00:38:39;;;;;;;38.53;21.50;;;11.10;94.10;;;;;;4925204;29;20217;-79
2023/03/10 00:41:09;;;;;;;31.43;20.17;;;11.10;93.90;;;;;;4943239;29;20238;-79
2023/03/10 00:43:37;;;;;;;31.13;19.20;;;11.00;93.90;;;;;;4931573;29;20214;-79
2023/03/10 00:46:05;;;;;;;28.30;19.10;;;11.00;94.10;;;;;;4931898;29;20201;-79
2023/03/10 00:48:33;;;;;;;26.90;21.07;;;11.00;93.90;;;;;;4937701;29;20213;-79
2023/03/10 00:51:01;;;;;;;36.03;21.10;;;10.90;93.80;;;;;;4946017;29;20198;-79
2023/03/10 00:53:28;;;;;;;31.13;20.77;;;10.90;93.90;;;;;;4936896;29;20336;-79
2023/03/10 00:56:18;;;;;;;24.80;17.80;;;10.90;94.00;;;;;;4939950;29;20242;-79
2023/03/10 00:58:48;;;;;;;26.27;18.63;;;10.80;94.00;;;;;;4933237;29;20708;-79
2023/03/10 01:01:22;;;;;;;26.37;17.17;;;10.80;93.70;;;;;;4939148;29;20234;-79
2023/03/10 01:03:52;;;;;;;23.50;17.20;;;10.70;93.30;;;;;;4933468;29;20220;-79
2023/03/10 01:06:19;;;;;;;29.37;19.57;;;10.70;93.20;;;;;;4937407;29;20573;-79
2023/03/10 01:08:47;;;;;;;33.40;22.60;;;10.60;93.00;;;;;;4936188;29;20202;-79
2023/03/10 01:11:16;;;;;;;30.13;18.50;;;10.60;93.00;;;;;;4923485;29;20235;-79
2023/03/10 01:13:44;;;;;;;26.03;16.13;;;10.60;93.20;;;;;;4934005;29;20207;-79
2023/03/10 01:16:11;;;;;;;26.47;16.47;;;10.60;93.20;;;;;;4933631;29;20221;-80
2023/03/10 01:18:39;;;;;;;31.70;21.83;;;10.50;93.10;;;;;;4938924;29;20218;-79
2023/03/10 01:21:10;;;;;;;39.27;23.87;;;10.50;93.00;;;;;;4918204;29;20269;-79
2023/03/10 01:23:37;;;;;;;29.07;20.30;;;10.50;92.90;;;;;;4940976;29;20201;-80
2023/03/10 01:26:04;;;;;;;28.87;15.90;;;10.50;93.20;;;;;;4920944;29;20676;-79
2023/03/10 01:28:31;;;;;;;25.20;19.23;;;10.40;93.20;;;;;;4931399;29;20206;-81
2023/03/10 01:30:58;;;;;;;35.30;23.43;;;10.40;93.20;;;;;;4937363;29;20211;-79
2023/03/10 01:33:25;;;;;;;28.33;21.17;;;10.40;93.10;;;;;;4935775;29;20249;-79
2023/03/10 01:35:52;;;;;;;37.20;23.33;;;10.40;93.20;;;;;;4935035;29;20285;-79
2023/03/10 01:38:19;;;;;;;38.00;25.57;;;10.30;93.20;;;;;;4938432;29;20212;-79
2023/03/10 01:40:48;;;;;;;27.17;20.27;;;10.30;93.20;;;;;;4919368;29;20245;-79
2023/03/10 01:43:26;;;;;;;18.93;14.50;;;10.30;93.30;;;;;;4937530;29;20656;-80
2023/03/10 01:45:53;;;;;;;14.13;12.20;;;10.30;93.20;;;;;;4922183;29;20253;-79
2023/03/10 01:48:22;;;;;;;15.13;12.47;;;10.20;92.90;;;;;;4927171;29;20284;-79
2023/03/10 01:50:54;;;;;;;22.87;18.27;;;10.20;92.70;;;;;;4934959;29;20545;-79
2023/03/10 01:53:24;;;;;;;15.90;14.00;;;10.10;92.50;;;;;;4936195;29;20254;-78
2023/03/10 01:55:55;;;;;;;17.27;13.77;;;10.10;92.40;;;;;;4937105;29;20427;-79
2023/03/10 01:58:28;;;;;;;23.23;15.37;;;10.10;92.30;;;;;;4936754;29;20274;-79
2023/03/10 02:00:55;;;;;;;16.47;12.57;;;10.00;92.40;;;;;;4931256;29;20213;-79
2023/03/10 02:03:33;;;;;;;15.37;12.37;;;10.00;92.50;;;;;;4920691;29;20213;-79
2023/03/10 02:06:04;;;;;;;14.60;11.90;;;10.00;92.60;;;;;;4932750;29;20668;-79
2023/03/10 02:08:41;;;;;;;13.30;10.03;;;9.90;92.70;;;;;;4937086;29;20211;-79
2023/03/10 02:11:14;;;;;;;14.33;11.80;;;9.90;92.70;;;;;;4931146;29;20262;-80
2023/03/10 02:13:41;;;;;;;12.97;11.43;;;9.90;92.40;;;;;;4930548;29;20283;-79
2023/03/10 02:16:09;;;;;;;15.13;12.67;;;9.80;91.90;;;;;;4932811;29;20242;-80
2023/03/10 02:18:36;;;;;;;19.53;11.57;;;9.70;91.60;;;;;;4911493;29;20213;-79
2023/03/10 02:21:09;;;;;;;14.00;12.53;;;9.60;91.50;;;;;;4933626;29;20677;-79
2023/03/10 02:23:42;;;;;;;12.70;11.40;;;9.50;91.50;;;;;;4938341;29;20237;-79
2023/03/10 02:26:46;;;;;;;12.47;11.17;;;9.50;91.80;;;;;;4937408;29;20240;-79
2023/03/10 02:29:22;;;;;;;13.67;10.47;;;9.50;92.00;;;;;;4937297;29;20212;-79
2023/03/10 02:31:51;;;;;;;20.13;16.17;;;9.40;92.10;;;;;;4936812;29;20272;-79
2023/03/10 02:34:18;;;;;;;22.00;14.07;;;9.40;92.10;;;;;;4936789;29;20301;-79
2023/03/10 02:36:47;;;;;;;27.13;20.03;;;9.50;92.30;;;;;;4932881;29;20231;-79
2023/03/10 02:39:14;;;;;;;21.97;16.43;;;9.40;92.10;;;;;;4937747;29;20202;-79
2023/03/10 02:41:42;;;;;;;20.90;16.43;;;9.40;92.30;;;;;;4938738;29;20275;-79
2023/03/10 02:44:18;;;;;;;29.67;22.30;;;9.40;92.30;;;;;;4924106;29;20215;-79
2023/03/10 02:46:47;;;;;;;26.77;18.03;;;9.50;92.60;;;;;;4935218;29;20698;-79
2023/03/10 02:49:17;;;;;;;31.97;15.00;;;9.50;92.60;;;;;;4931558;29;20331;-79
2023/03/10 02:51:46;;;;;;;22.93;17.97;;;9.40;92.60;;;;;;4937616;29;20249;-80
2023/03/10 02:54:16;;;;;;;21.60;16.80;;;9.40;92.90;;;;;;4943047;29;20234;-79
2023/03/10 02:56:44;;;;;;;29.87;20.43;;;9.40;93.00;;;;;;4935394;29;20213;-80
2023/03/10 02:59:12;;;;;;;27.70;20.50;;;9.40;93.20;;;;;;4932453;29;20208;-79
2023/03/10 03:01:45;;;;;;;28.43;20.20;;;9.40;93.30;;;;;;4943547;29;20212;-79
2023/03/10 03:04:12;;;;;;;33.40;21.60;;;9.40;93.30;;;;;;4936243;29;20243;-79
2023/03/10 03:06:39;;;;;;;30.20;22.23;;;9.50;93.40;;;;;;4933465;29;20308;-79
2023/03/10 03:09:07;;;;;;;26.00;19.33;;;9.50;93.50;;;;;;4937940;29;20285;-79
2023/03/10 03:11:35;;;;;;;29.13;19.80;;;9.40;93.50;;;;;;4940960;29;20700;-78
2023/03/10 03:14:04;;;;;;;26.43;18.43;;;9.50;93.60;;;;;;4933791;29;20246;-80
2023/03/10 03:16:31;;;;;;;22.00;16.50;;;9.40;93.50;;;;;;4932379;29;20233;-79
2023/03/10 03:19:02;;;;;;;43.03;19.27;;;9.40;93.00;;;;;;4938396;29;20270;-79
2023/03/10 03:21:30;;;;;;;25.13;18.63;;;9.30;92.60;;;;;;4939745;29;20678;-80
2023/03/10 03:23:58;;;;;;;32.03;24.73;;;9.20;92.60;;;;;;4936413;29;20233;-79
2023/03/10 03:26:26;;;;;;;44.27;28.43;;;9.10;92.80;;;;;;4941287;29;20244;-80
2023/03/10 03:29:03;;;;;;;34.57;27.17;;;9.10;93.30;;;;;;4940083;29;20220;-79
2023/03/10 03:31:33;;;;;;;35.90;25.80;;;9.10;93.70;;;;;;4950465;29;20208;-80
2023/03/10 03:34:09;;;;;;;35.47;25.63;;;9.10;94.00;;;;;;4929367;29;20836;-80
2023/03/10 03:36:37;;;;;;;37.00;27.00;;;9.10;94.10;;;;;;4921307;29;20213;-80
2023/03/10 03:39:06;;;;;;;31.37;23.40;;;9.10;94.20;;;;;;4931901;29;20595;-80
2023/03/10 03:41:34;;;;;;;35.83;24.33;;;9.10;94.10;;;;;;4931191;29;20201;-79
2023/03/10 03:44:03;;;;;;;34.90;25.37;;;9.00;93.80;;;;;;4930413;29;20206;-80
2023/03/10 03:46:33;;;;;;;30.73;24.30;;;9.00;93.70;;;;;;4928781;29;20220;-80
2023/03/10 03:49:00;;;;;;;34.50;25.03;;;8.90;93.80;;;;;;4916151;29;20198;-80
2023/03/10 03:51:29;;;;;;;41.27;27.27;;;8.90;93.80;;;;;;4948681;29;20526;-80
2023/03/10 03:53:57;;;;;;;32.17;23.23;;;8.90;93.70;;;;;;4923078;29;20601;-79
2023/03/10 03:56:25;;;;;;;34.33;24.23;;;8.90;93.70;;;;;;4937918;29;20211;-80
2023/03/10 03:58:52;;;;;;;38.23;25.83;;;8.90;93.60;;;;;;4939433;29;20221;-79
2023/03/10 04:01:19;;;;;;;31.37;23.30;;;8.80;93.60;;;;;;4933621;29;20216;-80
2023/03/10 04:03:50;;;;;;;29.07;22.77;;;8.80;93.60;;;;;;4932020;29;20621;-80
2023/03/10 04:06:17;;;;;;;40.17;25.23;;;8.80;93.50;;;;;;4942757;29;20262;-80
2023/03/10 04:08:49;;;;;;;28.20;20.97;;;8.80;93.40;;;;;;4945649;29;20196;-80
2023/03/10 04:11:17;;;;;;;23.90;19.97;;;8.70;93.30;;;;;;4927468;29;20199;-80
2023/03/10 04:13:46;;;;;;;35.90;27.53;;;8.70;93.40;;;;;;4945310;29;20535;-80
2023/03/10 04:16:14;;;;;;;27.80;22.50;;;8.70;93.50;;;;;;4926082;29;20658;-80
2023/03/10 04:18:43;;;;;;;39.00;19.97;;;8.70;93.30;;;;;;4931475;29;20212;-80
2023/03/10 04:21:13;;;;;;;21.50;19.23;;;8.70;93.10;;;;;;4938740;29;20219;-79
2023/03/10 04:23:41;;;;;;;23.93;19.20;;;8.70;93.00;;;;;;4943709;29;21635;-80
2023/03/10 04:26:11;;;;;;;27.63;18.83;;;8.60;93.00;;;;;;4934151;29;20218;-80
2023/03/10 04:28:39;;;;;;;21.47;18.63;;;8.60;92.70;;;;;;4943204;29;20215;-79
2023/03/10 04:31:16;;;;;;;33.73;21.27;;;8.50;92.60;;;;;;4935949;29;20207;-80
2023/03/10 04:33:45;;;;;;;27.80;19.27;;;8.50;92.80;;;;;;4924180;29;20239;-80
2023/03/10 04:36:12;;;;;;;37.23;21.57;;;8.40;92.90;;;;;;4946940;29;20204;-81
2023/03/10 04:38:41;;;;;;;36.23;19.43;;;8.40;92.80;;;;;;4912071;29;20213;-80
2023/03/10 04:41:08;;;;;;;31.40;20.07;;;8.40;92.80;;;;;;4934651;29;20298;-80
2023/03/10 04:43:39;;;;;;;25.27;21.43;;;8.40;92.80;;;;;;4945108;29;20245;-79
2023/03/10 04:46:10;;;;;;;38.20;20.07;;;8.30;93.00;;;;;;4939286;29;20257;-80
2023/03/10 04:48:38;;;;;;;123.13;22.13;;;8.40;93.30;;;;;;4930330;29;20222;-79
2023/03/10 04:51:08;;;;;;;96.77;23.87;;;8.40;93.50;;;;;;4940285;29;20234;-80
2023/03/10 04:53:40;;;;;;;68.60;20.23;;;8.40;93.50;;;;;;4947608;29;20208;-80
2023/03/10 04:56:10;;;;;;;52.07;18.40;;;8.40;93.70;;;;;;4948073;28;20306;-79
2023/03/10 04:58:38;;;;;;;167.47;21.27;;;8.40;93.90;;;;;;4943697;29;20204;-80
2023/03/10 05:01:13;;;;;;;58.27;19.57;;;8.40;94.00;;;;;;4934839;29;20274;-80
2023/03/10 05:03:45;;;;;;;21.20;18.40;;;8.40;94.00;;;;;;4936600;29;20299;-80
2023/03/10 05:06:18;;;;;;;50.70;18.60;;;8.40;94.00;;;;;;4940312;29;20227;-80
2023/03/10 05:09:03;;;;;;;57.10;19.13;;;8.40;94.20;;;;;;4945514;29;20269;-79
2023/03/10 05:11:33;;;;;;;78.77;18.33;;;8.40;94.20;;;;;;4935961;29;20233;-80
2023/03/10 05:14:02;;;;;;;157.80;18.73;;;8.40;94.30;;;;;;4922292;29;20287;-80
2023/03/10 05:16:29;;;;;;;54.37;20.57;;;8.50;94.30;;;;;;4920941;29;20207;-80
2023/03/10 05:18:56;;;;;;;46.50;18.07;;;8.40;94.20;;;;;;4924158;29;20563;-81
2023/03/10 05:21:26;;;;;;;87.67;19.63;;;8.40;94.30;;;;;;4938071;29;20220;-80
2023/03/10 05:23:55;;;;;;;56.97;18.60;;;8.40;94.40;;;;;;4934387;29;20280;-79
2023/03/10 05:26:23;;;;;;;79.30;19.57;;;8.40;94.50;;;;;;4925460;29;20668;-80
2023/03/10 05:28:51;;;;;;;95.67;18.63;;;8.40;94.60;;;;;;4936016;29;20231;-80
2023/03/10 05:31:25;;;;;;;58.07;17.57;;;8.40;94.50;;;;;;4928206;29;20608;-80
2023/03/10 05:34:09;;;;;;;66.93;16.93;;;8.40;94.50;;;;;;4930857;29;20272;-80
2023/03/10 05:36:36;;;;;;;72.53;18.67;;;8.40;94.50;;;;;;4946261;29;20230;-80
2023/03/10 05:39:06;;;;;;;112.83;18.03;;;8.30;94.50;;;;;;4941019;29;20218;-79
2023/03/10 05:41:37;;;;;;;71.07;17.60;;;8.30;94.70;;;;;;4941963;29;20236;-79
2023/03/10 05:44:06;;;;;;;115.13;17.10;;;8.30;94.70;;;;;;4934599;29;20272;-80
2023/03/10 05:46:35;;;;;;;139.27;17.73;;;8.30;94.80;;;;;;4932670;29;20660;-80
2023/03/10 05:49:03;;;;;;;107.27;17.07;;;8.30;95.00;;;;;;4927640;29;20209;-80
2023/03/10 05:51:32;;;;;;;57.03;19.00;;;8.30;95.10;;;;;;4906093;29;20253;-80
2023/03/10 05:54:01;;;;;;;56.37;16.37;;;8.30;95.20;;;;;;4944359;29;20232;-80
2023/03/10 05:56:30;;;;;;;53.40;19.43;;;8.30;95.40;;;;;;4920257;29;20275;-80
2023/03/10 05:59:00;;;;;;;36.73;17.90;;;8.40;95.50;;;;;;4929524;29;20271;-80
2023/03/10 06:01:30;;;;;;;36.30;17.97;;;8.40;95.60;;;;;;4930988;29;20212;-80
2023/03/10 06:03:57;;;;;;;25.50;18.37;;;8.50;95.70;;;;;;4932137;29;20215;-80
2023/03/10 06:06:24;;;;;;;33.33;17.53;;;8.50;95.80;;;;;;4920842;29;20282;-80
2023/03/10 06:08:51;;;;;;;26.00;16.73;;;8.60;95.90;;;;;;4945254;29;20207;-80
2023/03/10 06:11:18;;;;;;;25.13;17.57;;;8.70;95.80;;;;;;4940078;29;20197;-80
2023/03/10 06:13:45;;;;;;;38.33;19.30;;;8.70;95.70;;;;;;4928738;29;20224;-79
2023/03/10 06:16:12;;;;;;;31.07;18.20;;;8.70;95.70;;;;;;4942226;29;20276;-80
2023/03/10 06:18:40;;;;;;;27.33;17.60;;;8.80;95.90;;;;;;4935465;29;20203;-80
2023/03/10 06:21:10;;;;;;;27.33;20.03;;;8.80;95.90;;;;;;4930101;29;20635;-81
2023/03/10 06:23:38;;;;;;;27.17;21.37;;;8.90;95.90;;;;;;4920994;29;20272;-80
2023/03/10 06:26:08;;;;;;;29.00;23.03;;;8.90;95.90;;;;;;4936376;29;20234;-80
2023/03/10 06:28:37;;;;;;;31.30;22.63;;;8.90;96.00;;;;;;4919514;29;20210;-80
2023/03/10 06:31:08;;;;;;;25.87;21.60;;;8.90;96.10;;;;;;4934864;29;20235;-81
2023/03/10 06:33:35;;;;;;;30.80;25.00;;;9.00;96.20;;;;;;4934646;29;20223;-81
2023/03/10 06:36:03;;;;;;;35.13;26.30;;;9.00;96.30;;;;;;4943087;29;20207;-80
2023/03/10 06:38:30;;;;;;;31.80;22.80;;;9.10;96.50;;;;;;4936316;29;20225;-80
2023/03/10 06:40:57;;;;;;;32.53;24.67;;;9.10;96.60;;;;;;4927924;29;20233;-80
2023/03/10 06:43:24;;;;;;;36.40;27.70;;;9.20;96.70;;;;;;4937327;29;20298;-80
2023/03/10 06:45:52;;;;;;;36.13;27.07;;;9.30;96.80;;;;;;4935497;29;20219;-80
2023/03/10 06:48:19;;;;;;;38.50;28.27;;;9.40;96.90;;;;;;4933151;29;20202;-81
2023/03/10 06:50:48;;;;;;;38.60;28.37;;;9.50;97.00;;;;;;4939481;29;20201;-80
2023/03/10 06:53:19;;;;;;;36.33;27.73;;;9.60;97.10;;;;;;4920816;29;20210;-80
2023/03/10 06:56:10;;;;;;;37.17;27.57;;;9.70;97.10;;;;;;4931072;29;20262;-80
2023/03/10 06:58:37;;;;;;;38.23;28.27;;;9.90;97.50;;;;;;4921802;29;20220;-80
2023/03/10 07:01:06;;;;;;;35.57;29.67;;;10.00;97.20;;;;;;4938761;29;20210;-80
2023/03/10 07:03:36;;;;;;;35.10;27.93;;;10.00;97.20;;;;;;4929515;29;20219;-80
2023/03/10 07:06:04;;;;;;;37.97;30.07;;;10.10;97.20;;;;;;4931299;29;20228;-82
2023/03/10 07:08:31;;;;;;;42.77;29.00;;;10.20;97.20;;;;;;4933213;29;20211;-80
2023/03/10 07:10:58;;;;;;;44.63;31.07;;;10.30;97.30;;;;;;4929924;29;20237;-79
2023/03/10 07:13:25;;;;;;;36.03;29.30;;;10.40;97.30;;;;;;4934448;29;20663;-80
2023/03/10 07:15:52;;;;;;;39.60;32.33;;;10.40;97.30;;;;;;4928530;29;20246;-79
2023/03/10 07:18:19;;;;;;;41.13;29.93;;;10.50;97.30;;;;;;4935973;29;20217;-80
2023/03/10 07:20:46;;;;;;;45.77;30.57;;;10.50;97.30;;;;;;4945385;29;20259;-80
2023/03/10 07:23:14;;;;;;;45.43;29.73;;;10.60;97.40;;;;;;4930815;29;20212;-79
2023/03/10 07:25:41;;;;;;;38.47;29.60;;;10.70;97.40;;;;;;4932002;29;20311;-80
2023/03/10 07:28:09;;;;;;;41.03;30.40;;;10.80;97.40;;;;;;4924496;29;20212;-80
2023/03/10 07:30:38;;;;;;;44.40;30.80;;;10.80;97.30;;;;;;4927753;29;20289;-80
2023/03/10 07:33:05;;;;;;;46.27;31.63;;;10.90;97.30;;;;;;4934408;29;20213;-80
2023/03/10 07:35:32;;;;;;;45.93;31.90;;;10.90;97.30;;;;;;4941290;29;20199;-80
2023/03/10 07:38:03;;;;;;;41.70;31.23;;;11.00;97.30;;;;;;4934877;29;20269;-79
2023/03/10 07:40:30;;;;;;;38.53;29.70;;;11.10;97.30;;;;;;4938441;29;20218;-80
2023/03/10 07:42:57;;;;;;;42.70;29.97;;;11.10;97.20;;;;;;4938359;29;20222;-81
2023/03/10 07:45:27;;;;;;;49.53;30.17;;;11.20;97.10;;;;;;4935019;29;20615;-80
2023/03/10 07:47:54;;;;;;;44.50;31.20;;;11.20;97.10;;;;;;4927345;29;20466;-79
2023/03/10 07:50:21;;;;;;;44.37;30.57;;;11.30;97.20;;;;;;4933738;29;20254;-80
2023/03/10 07:52:48;;;;;;;43.40;31.50;;;11.40;97.20;;;;;;4929630;29;20672;-79
2023/03/10 07:55:16;;;;;;;46.07;32.47;;;11.40;97.10;;;;;;4934382;29;20783;-79
2023/03/10 07:57:44;;;;;;;41.87;30.47;;;11.50;97.20;;;;;;4917617;29;20221;-80
2023/03/10 08:00:12;;;;;;;49.27;32.07;;;11.60;97.30;;;;;;4936256;29;20651;-80
2023/03/10 08:02:39;;;;;;;51.87;31.33;;;11.80;97.40;;;;;;4917210;29;20203;-79
2023/03/10 08:05:08;;;;;;;39.13;29.77;;;12.00;97.70;;;;;;4925808;29;20609;-80
2023/03/10 08:07:36;;;;;;;39.43;30.60;;;12.10;96.90;;;;;;4926040;29;20225;-80
2023/03/10 08:10:04;;;;;;;45.87;29.87;;;12.20;96.60;;;;;;4928932;29;20537;-80
2023/03/10 08:12:32;;;;;;;43.27;29.73;;;12.30;96.50;;;;;;4929167;29;20305;-80
2023/03/10 08:14:59;;;;;;;41.43;29.90;;;12.40;96.50;;;;;;4940829;29;20235;-80
2023/03/10 08:17:32;;;;;;;44.83;32.20;;;12.50;96.50;;;;;;4929928;29;20223;-80
2023/03/10 08:19:59;;;;;;;42.70;33.90;;;12.60;96.30;;;;;;4935353;29;20208;-79
2023/03/10 08:22:27;;;;;;;48.63;33.87;;;12.70;96.30;;;;;;4932241;29;20248;-80
2023/03/10 08:24:55;;;;;;;44.00;31.83;;;12.80;96.40;;;;;;4911897;29;20311;-80
2023/03/10 08:27:22;;;;;;;48.43;34.63;;;13.00;96.40;;;;;;4927195;29;20506;-80
2023/03/10 08:29:49;;;;;;;37.13;28.63;;;13.20;96.50;;;;;;4917606;29;20242;-80
2023/03/10 08:32:18;;;;;;;37.87;26.80;;;13.40;96.20;;;;;;4913659;29;20204;-78
2023/03/10 08:34:46;;;;;;;31.80;26.33;;;13.50;95.50;;;;;;4913121;29;20214;-80
2023/03/10 08:37:13;;;;;;;35.80;25.33;;;13.60;95.20;;;;;;4910639;29;20290;-79
2023/03/10 08:39:40;;;;;;;36.37;25.83;;;13.60;95.00;;;;;;4916013;29;20310;-79
2023/03/10 08:42:10;;;;;;;34.40;25.83;;;13.60;94.70;;;;;;4931463;29;20642;-80
2023/03/10 08:44:38;;;;;;;33.43;24.87;;;13.70;94.70;;;;;;4926196;29;20199;-80
2023/03/10 08:47:06;;;;;;;32.43;26.37;;;13.80;94.90;;;;;;4917162;29;20235;-79
2023/03/10 08:49:33;;;;;;;37.50;25.90;;;13.90;95.10;;;;;;4933385;29;20668;-78
2023/03/10 08:52:01;;;;;;;31.90;23.47;;;14.10;94.70;;;;;;4931812;29;20190;-78
2023/03/10 08:54:28;;;;;;;31.37;23.63;;;14.30;94.50;;;;;;4940507;29;20220;-77
2023/03/10 08:56:58;;;;;;;37.67;25.30;;;14.40;94.30;;;;;;4937884;29;20233;-77
2023/03/10 08:59:26;;;;;;;31.03;24.10;;;14.50;94.20;;;;;;4917888;29;20243;-77
2023/03/10 09:01:52;;;;;;;38.07;24.63;;;14.60;94.20;;;;;;4913884;29;20202;-78
2023/03/10 09:04:20;;;;;;;32.83;24.87;;;14.80;94.00;;;;;;4929901;29;20239;-78
2023/03/10 09:06:47;;;;;;;30.63;24.27;;;14.90;93.80;;;;;;4940449;29;20218;-77
2023/03/10 09:09:14;;;;;;;25.10;19.73;;;15.00;93.90;;;;;;4918795;29;20207;-77
2023/03/10 09:11:42;;;;;;;27.53;19.27;;;15.20;93.70;;;;;;4917960;29;20212;-78
2023/03/10 09:14:10;;;;;;;25.70;19.63;;;15.30;93.00;;;;;;4926803;29;20220;-78
2023/03/10 09:16:38;;;;;;;24.70;17.13;;;15.40;92.80;;;;;;4922615;29;20577;-78
2023/03/10 09:19:06;;;;;;;26.07;16.03;;;15.50;91.30;;;;;;4917957;29;20265;-78
2023/03/10 09:21:33;;;;;;;27.10;17.07;;;15.50;91.40;;;;;;4928967;29;20305;-79
2023/03/10 09:24:01;;;;;;;24.03;17.80;;;15.60;91.60;;;;;;4927605;29;20250;-77
2023/03/10 09:26:29;;;;;;;25.70;17.70;;;15.70;91.40;;;;;;4923071;29;20234;-78
2023/03/10 09:28:56;;;;;;;23.17;16.53;;;15.80;91.30;;;;;;4936152;29;20210;-78
2023/03/10 09:31:28;;;;;;;21.50;15.07;;;16.00;91.60;;;;;;4927142;29;20212;-79
2023/03/10 09:33:55;;;;;;;21.03;14.37;;;16.10;90.20;;;;;;4931453;29;20262;-78
2023/03/10 09:36:23;;;;;;;21.63;15.00;;;16.20;90.10;;;;;;4936790;29;20722;-78
2023/03/10 09:38:50;;;;;;;22.07;15.17;;;16.30;89.00;;;;;;4924002;29;20291;-78
2023/03/10 09:41:28;;;;;;;24.00;17.23;;;16.30;88.80;;;;;;4939505;29;20217;-79
2023/03/10 09:44:06;;;;;;;31.13;18.57;;;16.40;88.50;;;;;;4934715;29;20616;-78
2023/03/10 09:47:12;;;;;;;26.03;16.47;;;16.40;88.50;;;;;;4910598;29;20228;-78
2023/03/10 09:49:45;;;;;;;20.63;16.33;;;16.50;88.40;;;;;;4918331;29;20792;-78
2023/03/10 09:52:27;;;;;;;21.43;16.00;;;16.50;88.00;;;;;;4937238;29;20518;-79
2023/03/10 09:55:13;;;;;;;21.20;15.67;;;16.60;87.70;;;;;;4932497;29;20207;-79
2023/03/10 09:57:40;;;;;;;25.67;14.90;;;16.70;88.30;;;;;;4919800;29;20200;-78
2023/03/10 10:00:19;;;;;;;19.80;15.07;;;16.80;88.40;;;;;;4913605;29;20232;-78
2023/03/10 10:02:50;;;;;;;25.40;16.07;;;16.90;87.70;;;;;;4919956;29;20239;-79
2023/03/10 10:05:23;;;;;;;20.43;15.07;;;17.10;87.50;;;;;;4916017;29;20203;-79
2023/03/10 10:08:01;;;;;;;21.90;15.93;;;17.20;87.10;;;;;;4911891;29;20224;-78
2023/03/10 10:10:35;;;;;;;16.80;12.70;;;17.30;87.30;;;;;;4913849;29;20517;-78
2023/03/10 10:13:12;;;;;;;19.87;13.03;;;17.60;87.40;;;;;;4927771;29;20205;-78
2023/03/10 10:15:48;;;;;;;18.33;13.03;;;17.90;82.90;;;;;;4925045;29;20229;-79
2023/03/10 10:18:41;;;;;;;16.50;10.40;;;18.20;83.00;;;;;;4940229;29;20271;-78
2023/03/10 10:21:11;;;;;;;19.27;13.37;;;18.40;81.20;;;;;;4935803;29;20312;-78
2023/03/10 10:23:51;;;;;;;24.70;17.07;;;18.60;80.30;;;;;;4936383;29;20212;-78
2023/03/10 10:26:27;;;;;;;21.10;15.87;;;18.80;80.30;;;;;;4935639;29;20216;-78
2023/03/10 10:29:10;;;;;;;24.67;14.50;;;18.90;80.20;;;;;;4929175;29;20647;-79
2023/03/10 10:31:38;;;;;;;16.47;13.33;;;19.10;78.70;;;;;;4921362;29;20598;-78
2023/03/10 10:34:21;;;;;;;14.30;10.63;;;19.20;76.90;;;;;;4938908;29;20202;-81
2023/03/10 10:36:54;;;;;;;8.93;6.83;;;19.30;75.00;;;;;;4939441;29;20206;-78
2023/03/10 10:39:42;;;;;;;8.57;6.57;;;19.30;73.60;;;;;;4933460;29;20206;-78
2023/03/10 10:42:12;;;;;;;9.73;5.67;;;19.40;72.10;;;;;;4933924;29;20265;-79
2023/03/10 10:44:42;;;;;;;9.20;5.17;;;19.50;71.00;;;;;;4933663;29;20221;-79
2023/03/10 10:47:27;;;;;;;7.53;6.47;;;19.60;71.80;;;;;;4935165;29;20325;-79
2023/03/10 10:50:19;;;;;;;7.27;4.57;;;19.80;71.60;;;;;;4933502;29;20292;-79
2023/03/10 10:52:49;;;;;;;10.37;3.07;;;19.90;69.70;;;;;;4936259;29;20210;-78
2023/03/10 10:55:26;;;;;;;5.77;3.43;;;20.00;68.70;;;;;;4934541;29;20203;-79
2023/03/10 10:57:56;;;;;;;9.50;4.97;;;20.00;67.00;;;;;;4938075;29;20215;-79
2023/03/10 11:00:32;;;;;;;10.47;5.60;;;20.10;66.70;;;;;;4933655;29;20209;-79
2023/03/10 11:02:59;;;;;;;5.50;3.33;;;20.20;68.40;;;;;;4943968;29;20578;-78
2023/03/10 11:05:36;;;;;;;7.83;3.57;;;20.30;65.60;;;;;;4939089;29;20229;-80
2023/03/10 11:08:18;;;;;;;7.37;3.33;;;20.40;64.80;;;;;;4919069;29;20299;-79
2023/03/10 11:10:53;;;;;;;5.00;2.33;;;20.60;64.90;;;;;;4930576;29;20213;-78
2023/03/10 11:13:44;;;;;;;4.37;2.17;;;20.60;64.90;;;;;;4936679;29;20211;-81
2023/03/10 11:16:52;;;;;;;6.00;2.20;;;20.80;64.50;;;;;;4895936;29;20217;-81
2023/03/10 11:19:36;;;;;;;5.40;1.50;;;20.90;60.40;;;;;;4936770;29;20366;-79
2023/03/10 11:22:43;;;;;;;4.70;1.63;;;20.90;60.90;;;;;;4933884;29;20285;-78
2023/03/10 11:25:22;;;;;;;3.27;1.40;;;21.00;60.90;;;;;;4932931;29;20710;-78
2023/03/10 11:28:14;;;;;;;2.80;1.47;;;20.90;60.10;;;;;;4926669;29;20317;-79
2023/03/10 11:30:52;;;;;;;4.60;1.30;;;20.70;59.90;;;;;;4930045;29;20266;-81
2023/03/10 11:33:28;;;;;;;2.57;1.60;;;20.70;59.20;;;;;;4932238;29;20595;-83
2023/03/10 11:36:06;;;;;;;3.10;1.33;;;20.70;57.80;;;;;;4926504;29;20618;-80
2023/03/10 11:38:43;;;;;;;2.87;1.13;;;20.80;57.50;;;;;;4921102;29;20216;-80
2023/03/10 11:41:18;;;;;;;2.80;1.27;;;20.90;58.50;;;;;;4926110;29;20219;-79
2023/03/10 11:43:54;;;;;;;3.23;1.80;;;21.00;57.90;;;;;;4924528;29;20358;-79
2023/03/10 11:46:30;;;;;;;4.17;1.50;;;21.00;59.40;;;;;;4934643;29;20606;-79
2023/03/10 11:49:11;;;;;;;5.60;1.47;;;21.20;57.70;;;;;;4930775;29;20266;-80
2023/03/10 11:51:46;;;;;;;4.80;1.50;;;21.20;56.50;;;;;;4932645;29;20251;-80
2023/03/10 11:54:29;;;;;;;3.30;1.53;;;21.20;57.40;;;;;;4931360;29;20211;-79
2023/03/10 11:57:02;;;;;;;2.60;1.43;;;21.20;57.20;;;;;;4927997;29;20231;-81
2023/03/10 11:59:32;;;;;;;5.07;1.70;;;21.30;56.90;;;;;;4932620;29;20203;-78
2023/03/10 12:02:26;;;;;;;4.60;1.83;;;21.30;57.70;;;;;;4930786;29;20243;-81
2023/03/10 12:05:05;;;;;;;3.00;1.70;;;21.40;58.00;;;;;;4919528;29;20213;-80
2023/03/10 12:07:38;;;;;;;6.83;1.93;;;21.40;56.20;;;;;;4929640;29;20255;-80
2023/03/10 12:10:11;;;;;;;5.33;1.83;;;21.40;57.60;;;;;;4927663;28;20241;-82
2023/03/10 12:12:45;;;;;;;5.00;2.20;;;21.40;57.30;;;;;;4929291;29;20201;-79
2023/03/10 12:15:35;;;;;;;9.57;2.70;;;21.40;56.90;;;;;;4927921;29;20635;-80
2023/03/10 12:18:04;;;;;;;7.50;3.00;;;21.40;56.70;;;;;;4935025;29;20203;-79
2023/03/10 12:20:33;;;;;;;9.07;3.60;;;21.50;58.20;;;;;;4915977;29;20215;-80
2023/03/10 12:23:23;;;;;;;8.23;3.63;;;21.50;57.40;;;;;;4921564;29;20255;-81
2023/03/10 12:25:50;;;;;;;6.80;4.03;;;21.40;57.10;;;;;;4938706;29;20227;-78
2023/03/10 12:28:23;;;;;;;8.67;3.37;;;21.40;57.40;;;;;;4937643;29;20282;-80
2023/03/10 12:31:09;;;;;;;5.23;3.13;;;21.40;59.00;;;;;;4953509;29;20214;-78
2023/03/10 12:33:44;;;;;;;6.20;2.93;;;21.50;57.90;;;;;;4940519;29;20317;-79
2023/03/10 12:36:32;;;;;;;5.10;3.10;;;21.60;58.10;;;;;;4928614;29;20239;-83
2023/03/10 12:39:22;;;;;;;6.00;3.63;;;21.70;57.10;;;;;;4927454;29;20207;-84
2023/03/10 12:41:58;;;;;;;9.97;3.80;;;21.70;56.30;;;;;;4944975;29;20274;-82
2023/03/10 12:44:48;;;;;;;5.97;3.33;;;21.70;55.30;;;;;;4932432;29;20554;-81
2023/03/10 12:47:24;;;;;;;6.13;3.37;;;21.70;55.20;;;;;;4941750;29;20230;-79
2023/03/10 12:49:56;;;;;;;5.47;3.50;;;21.60;55.60;;;;;;4942711;29;20540;-80
2023/03/10 12:52:45;;;;;;;8.47;3.33;;;21.60;56.90;;;;;;4934776;29;20234;-79
2023/03/10 12:55:27;;;;;;;10.87;4.37;;;21.70;58.30;;;;;;4933904;29;20207;-80